Seabourn Quest — C6YZ5 — position and weather

sailwx.info

Track history (hours):
 
Tides and Currents Weather Stations Pressure Air Temp Water Temp Dewpoint Dewpoint Depression Visibility Wind Speed Wind Dir Waves Ship Positions

Seabourn Quest

Last reported at 2019-May-20 08:56 UTC. Time now 2019-May-20 16:34 UTC.
Position N 51°43' W 005°17'.

Length 198 m; draft 6.8 m.

Type: Ship. MMSI: 311038900.

Date/timePositionNaut miles runAvg speedWind from/ knotsBaromVisibWave heightAir tempDewpointWater temp
2019-May-20 08:56N 51°43' W 005°17'0 0.2
2019-May-20 08:28N 51°43' W 005°17'0 0.2
2019-May-20 07:58N 51°43' W 005°17'0 0.2
2019-May-20 07:25N 51°43' W 005°17'0 0.0
2019-May-20 06:55N 51°43' W 005°17'0 0.1
2019-May-20 06:26N 51°43' W 005°17'0 0.6
2019-May-20 05:50N 51°43' W 005°16'3 8.1
2019-May-20 05:30N 51°40' W 005°15'611.3
2019-May-20 05:00N 51°35' W 005°15'510.2
2019-May-20 04:30N 51°30' W 005°16'511.0
2019-May-20 04:00N 51°24' W 005°16'5 9.5
2019-May-20 03:30N 51°20' W 005°14'610.4
2019-May-20 02:58N 51°21' W 005°05'611.4
2019-May-20 02:28N 51°23' W 004°56'4 9.0
2019-May-20 02:00N 51°24' W 004°50'5 9.3
2019-May-20 01:29N 51°24' W 004°42'54 9.7
2019-May-19 19:56N 51°21' W 003°16'5 9.9
2019-May-19 19:26N 51°22' W 003°08'716.7
2019-May-19 19:00N 51°27' W 002°59'815.6
2019-May-19 18:31N 51°30' W 002°48'3 5.7
2019-May-19 18:00N 51°30' W 002°44'0 0.7
2019-May-19 17:30N 51°30' W 002°43'0 0.1
2019-May-19 16:58N 51°30' W 002°43'0 0.0
2019-May-19 16:28N 51°30' W 002°43'0 0.0
2019-May-19 15:58N 51°30' W 002°43'0 0.0
2019-May-19 15:28N 51°30' W 002°43'0 0.0
2019-May-19 14:58N 51°30' W 002°43'0 0.0
2019-May-19 14:30N 51°30' W 002°43'0 0.0
2019-May-19 13:54N 51°30' W 002°43'0 0.0
2019-May-19 13:29N 51°30' W 002°43'0 0.0
2019-May-19 13:00N 51°30' W 002°43'0 0.0
2019-May-19 12:30N 51°30' W 002°43'0 0.0
2019-May-19 12:00N 51°30' W 002°43'0 0.0
2019-May-19 11:29N 51°30' W 002°43'0 0.0
2019-May-19 10:58N 51°30' W 002°43'0 0.0
2019-May-19 10:28N 51°30' W 002°43'0 0.0
2019-May-19 10:00N 51°30' W 002°43'0 0.0
2019-May-19 09:29N 51°30' W 002°43'0 0.0
2019-May-19 08:59N 51°30' W 002°43'0 0.0
2019-May-19 08:29N 51°30' W 002°43'0 0.0
2019-May-19 07:59N 51°30' W 002°43'0 0.0
2019-May-19 07:29N 51°30' W 002°43'0 0.0
2019-May-19 07:00N 51°30' W 002°43'0 0.7
2019-May-19 06:30N 51°30' W 002°43'0 0.5
2019-May-19 06:01N 51°30' W 002°44'1 3.0
2019-May-19 05:30N 51°30' W 002°46'815.5
2019-May-19 05:00N 51°27' W 002°58'1115.1
2019-May-19 04:15N 51°21' W 003°14'312.0
2019-May-19 04:01N 51°21' W 003°18'4912.8
2019-May-19 00:12N 51°07' W 004°33'413.5
2019-May-18 23:53N 51°05' W 004°38'513.4
2019-May-18 23:30N 51°02' W 004°44'713.6
2019-May-18 23:01N 50°57' W 004°53'713.4
2019-May-18 22:30N 50°53' W 005°01'713.4
2019-May-18 22:00N 50°48' W 005°08'713.3
2019-May-18 21:30N 50°43' W 005°16'612.8
2019-May-18 21:00N 50°39' W 005°23'510.4
2019-May-18 20:30N 50°35' W 005°29'5 9.9
2019-May-18 20:00N 50°32' W 005°34'510.1
2019-May-18 19:30N 50°28' W 005°40'1410.5
2019-May-18 18:13N 50°17' W 005°53'411.4
2019-May-18 17:50N 50°13' W 005°53'66 9.3
2019-May-18 10:46N 49°55' W 004°14'813.3
2019-May-18 10:08N 49°56' W 004°01'213.2
2019-May-18 10:00N 49°56' W 003°59'713.1
2019-May-18 09:30N 49°57' W 003°49'612.7
2019-May-18 09:00N 49°58' W 003°39'612.2
2019-May-18 08:30N 49°58' W 003°29'611.7
2019-May-18 08:00N 49°59' W 003°20'611.2
2019-May-18 07:30N 49°60' W 003°12'510.8
2019-May-18 07:00N 50°00' W 003°03'510.5
2019-May-18 06:30N 50°01' W 002°55'510.3
2019-May-18 06:00N 50°02' W 002°48'4270.1
2019-May-18 06:00N 50°00' W 002°42'4 7.8 360 / 101005.2 2.2 11.4 13.7
2019-May-18 05:30N 50°04' W 002°40'510.7
2019-May-18 05:00N 50°05' W 002°32'611.3
2019-May-18 04:30N 50°06' W 002°23'612.1
2019-May-18 04:00N 50°08' W 002°14'2113.9
2019-May-18 02:30N 50°14' W 001°43'4015.4
2019-May-17 23:54N 50°24' W 000°42'6311.5
2019-May-17 18:26N 50°45' E 000°51'613.1
2019-May-17 18:00N 50°49' E 000°59'714.0
2019-May-17 17:30N 50°53' E 001°07'714.4
2019-May-17 17:00N 50°58' E 001°15'9 0.7
2019-May-17 04:31N 51°07' E 001°20'0 2.6
2019-May-17 04:30N 51°07' E 001°20'3 6.2
2019-May-17 04:01N 51°08' E 001°24'510.2
2019-May-17 03:31N 51°08' E 001°32'5 9.5
2019-May-17 03:01N 51°10' E 001°39'4 8.5
2019-May-17 02:31N 51°13' E 001°44'5 9.5
2019-May-17 02:00N 51°18' E 001°47'5 9.9
2019-May-17 01:30N 51°22' E 001°51'5 9.6
2019-May-17 01:01N 51°26' E 001°54'5 9.4
2019-May-17 00:31N 51°30' E 001°59'5 9.1
2019-May-17 00:01N 51°33' E 002°04'5 9.5
2019-May-16 23:30N 51°37' E 002°09'5 9.4
2019-May-16 23:00N 51°40' E 002°14'5 8.1
2019-May-16 22:27N 51°43' E 002°19'9 9.1
2019-May-16 21:26N 51°49' E 002°31'611.9
2019-May-16 20:56N 51°46' E 002°39'510.2
2019-May-16 20:27N 51°41' E 002°41'7 9.2
2019-May-16 19:39N 51°34' E 002°43'1 9.4
2019-May-16 19:30N 51°32' E 002°43'4 9.0
2019-May-16 19:01N 51°28' E 002°42'5 9.5
2019-May-16 18:30N 51°23' E 002°43'5 9.6
2019-May-16 18:00N 51°22' E 002°51'714.5
2019-May-16 17:30N 51°24' E 003°02'711.6
2019-May-16 16:53N 51°20' E 003°12'0 0.0
2019-May-16 06:36N 51°20' E 003°12'0 0.0
2019-May-16 06:21N 51°20' E 003°12'0 0.0
2019-May-16 05:57N 51°20' E 003°12'0 0.0
2019-May-16 05:30N 51°20' E 003°12'0 0.0
2019-May-16 04:51N 51°20' E 003°12'0 0.0
2019-May-16 04:30N 51°20' E 003°12'1 1.9
2019-May-16 04:00N 51°21' E 003°12'3 6.7
2019-May-16 03:30N 51°25' E 003°13'5 9.8
2019-May-16 03:00N 51°25' E 003°21'5 9.9
2019-May-16 02:30N 51°25' E 003°29'4 8.0
2019-May-16 02:00N 51°26' E 003°35'5 9.5
2019-May-16 01:30N 51°25' E 003°42'511.0
2019-May-16 01:00N 51°21' E 003°49'510.5
2019-May-16 00:30N 51°23' E 003°56'4 8.4
2019-May-16 00:00N 51°26' E 004°01'4 8.6
2019-May-15 23:30N 51°22' E 004°05'5 9.1
2019-May-15 23:00N 51°24' E 004°12'4 8.6
2019-May-15 22:30N 51°20' E 004°16'3 6.7
2019-May-15 22:00N 51°17' E 004°19'3 5.4
2019-May-15 21:30N 51°15' E 004°20'3 5.3
2019-May-15 21:00N 51°14' E 004°24'0 0.5
2019-May-15 20:26N 51°13' E 004°24'0 0.0
2019-May-15 19:56N 51°13' E 004°24'0 0.0
2019-May-15 19:29N 51°13' E 004°24'0 0.0
2019-May-15 18:55N 51°13' E 004°24'0 0.0
2019-May-15 18:30N 51°13' E 004°24'0 0.0
2019-May-15 17:49N 51°13' E 004°24'0 0.0
2019-May-15 17:25N 51°13' E 004°24'0 0.0
2019-May-15 16:55N 51°13' E 004°24'0 0.0
2019-May-15 16:28N 51°13' E 004°24'0 0.0
2019-May-15 15:58N 51°13' E 004°24'0 0.0
2019-May-15 15:30N 51°13' E 004°24'0 0.0
2019-May-15 15:00N 51°13' E 004°24'0 0.0
2019-May-15 14:30N 51°13' E 004°24'0 0.0
2019-May-15 13:56N 51°13' E 004°24'0 0.0
2019-May-15 13:29N 51°13' E 004°24'0 0.0
2019-May-15 12:59N 51°13' E 004°24'0 0.0
2019-May-15 12:26N 51°13' E 004°24'0 0.2
2019-May-15 12:02N 51°13' E 004°24'781616.2
2019-May-15 11:59N 51°03' E 002°21'789019.3
2019-May-15 11:58N 51°13' E 004°24'0 0.0
2019-May-15 11:53N 51°13' E 004°24'0 0.1
2019-May-15 11:47N 51°13' E 004°24'0 0.1
2019-May-15 11:44N 51°13' E 004°24'0 0.0
2019-May-15 11:29N 51°13' E 004°24'026.8
2019-May-15 11:29N 51°13' E 004°24'0 0.0
2019-May-15 10:57N 51°13' E 004°24'0 0.0
2019-May-15 10:30N 51°13' E 004°24'0 0.0
2019-May-15 09:57N 51°13' E 004°24'0 0.0
2019-May-15 09:30N 51°13' E 004°24'0 0.0
2019-May-15 08:57N 51°13' E 004°24'0 0.0
2019-May-15 08:30N 51°13' E 004°24'0 0.0
2019-May-15 07:57N 51°13' E 004°24'0 0.0
2019-May-15 07:30N 51°13' E 004°24'0 0.0
2019-May-15 07:00N 51°13' E 004°24'0 0.0
2019-May-15 06:28N 51°13' E 004°24'0 0.0
2019-May-15 06:00N 51°13' E 004°24'0 0.8
2019-May-15 05:30N 51°14' E 004°24'4 8.2
2019-May-15 05:00N 51°16' E 004°18'4 8.9
2019-May-15 04:30N 51°20' E 004°16'510.4
2019-May-15 04:01N 51°24' E 004°11'510.8
2019-May-15 03:30N 51°24' E 004°02'5 9.2
2019-May-15 03:00N 51°22' E 003°56'612.4
2019-May-15 02:30N 51°22' E 003°46'612.6
2019-May-15 02:00N 51°26' E 003°39'510.6
2019-May-15 01:30N 51°25' E 003°31'713.0
2019-May-15 01:00N 51°24' E 003°20'713.3
2019-May-15 00:29N 51°24' E 003°09'611.7
2019-May-14 23:59N 51°23' E 003°00'713.7
2019-May-14 23:30N 51°22' E 002°50'610.7
2019-May-14 22:58N 51°22' E 002°41'612.7
2019-May-14 22:30N 51°22' E 002°31'5 9.1
2019-May-14 21:57N 51°20' E 002°24'510.1
2019-May-14 21:29N 51°18' E 002°17'612.8
2019-May-14 21:00N 51°15' E 002°09'611.7
2019-May-14 20:30N 51°12' E 002°01'611.1
2019-May-14 20:00N 51°09' E 001°54'511.0
2019-May-14 19:30N 51°05' E 001°46'4 7.8
2019-May-14 19:00N 51°02' E 001°47'713.6
2019-May-14 18:30N 51°03' E 001°58'916.5
2019-May-14 17:58N 51°03' E 002°12'611.9
2019-May-14 17:29N 51°03' E 002°21'0 0.6
2019-May-14 16:40N 51°03' E 002°20'1 2.8
2019-May-14 16:26N 51°03' E 002°21'0 0.7
2019-May-14 15:52N 51°03' E 002°21'0 0.0
2019-May-14 14:56N 51°03' E 002°21'0 0.0
2019-May-14 14:31N 51°03' E 002°21'0 0.0
2019-May-14 13:37N 51°03' E 002°21'0 0.0
2019-May-14 13:21N 51°03' E 002°21'0 0.0
2019-May-14 12:44N 51°03' E 002°21'0 0.0
2019-May-14 12:17N 51°03' E 002°21'0 0.0
2019-May-14 11:50N 51°03' E 002°21'0 0.0
2019-May-14 11:15N 51°03' E 002°21'0 0.0
2019-May-14 10:47N 51°03' E 002°21'0 0.0
2019-May-14 10:27N 51°03' E 002°21'0 0.0
2019-May-14 09:33N 51°03' E 002°21'0 0.0
2019-May-14 09:22N 51°03' E 002°21'0 0.0
2019-May-14 08:58N 51°03' E 002°21'0 0.0
2019-May-14 08:21N 51°03' E 002°21'0 0.0
2019-May-14 07:26N 51°03' E 002°21'0 0.0
2019-May-14 06:34N 51°03' E 002°21'0 0.0
2019-May-14 06:22N 51°03' E 002°21'0 0.0
2019-May-14 05:51N 51°03' E 002°21'0 1.1
2019-May-14 05:30N 51°03' E 002°21'1 1.3
2019-May-14 05:00N 51°03' E 002°20'0 0.6
2019-May-14 04:28N 51°03' E 002°21'4 7.8
2019-May-14 03:54N 51°04' E 002°14'512.6
2019-May-14 03:31N 51°03' E 002°06'612.0
2019-May-14 03:00N 51°02' E 001°57'510.2
2019-May-14 02:30N 51°02' E 001°49'612.5
2019-May-14 02:00N 51°00' E 001°39'815.6
2019-May-14 01:30N 50°55' E 001°30'1515.5
2019-May-14 00:31N 50°40' E 001°22'016.5
2019-May-14 00:31N 50°40' E 001°22'815.7
2019-May-14 00:00N 50°35' E 001°12'1015.8
2019-May-13 23:24N 50°29' E 001°01'916.0
2019-May-13 22:51N 50°24' E 000°50'2916.0
2019-May-13 21:03N 50°02' E 000°21'315.9
2019-May-13 20:52N 49°59' E 000°19'615.7
2019-May-13 20:28N 49°55' E 000°11'715.7
2019-May-13 20:00N 49°49' E 000°04'815.6
2019-May-13 19:30N 49°43' W 000°03'815.5
2019-May-13 19:00N 49°36' W 000°07'714.0
2019-May-13 18:30N 49°29' W 000°04'714.2
2019-May-13 18:00N 49°26' E 000°06'715.0
2019-May-13 17:31N 49°26' E 000°17'714.7
2019-May-13 17:01N 49°28' E 000°28'4 8.0
2019-May-13 16:31N 49°27' E 000°34'4 8.4
2019-May-13 16:00N 49°28' E 000°40'4 8.6
2019-May-13 15:30N 49°31' E 000°44'4 7.7
2019-May-13 15:00N 49°29' E 000°48'5 9.6
2019-May-13 14:30N 49°24' E 000°49'4 7.9
2019-May-13 14:00N 49°27' E 000°51'3 6.6
2019-May-13 13:30N 49°26' E 000°56'510.8
2019-May-13 13:00N 49°21' E 000°57'4 8.0
2019-May-13 12:30N 49°24' E 001°01'3 5.5
2019-May-13 11:58N 49°27' E 001°03'0 0.0
2019-May-13 11:28N 49°27' E 001°03'0 0.0
2019-May-13 10:55N 49°27' E 001°03'0 0.0
2019-May-13 10:25N 49°27' E 001°03'0 0.0
2019-May-13 09:54N 49°27' E 001°03'0 0.0
2019-May-13 09:30N 49°27' E 001°03'0 0.0
2019-May-13 09:00N 49°27' E 001°03'0 0.0
2019-May-13 08:30N 49°27' E 001°03'0 0.0
2019-May-13 07:59N 49°27' E 001°03'0 0.0
2019-May-13 07:31N 49°27' E 001°03'0 0.0
2019-May-13 06:59N 49°27' E 001°03'0 0.0
2019-May-13 06:29N 49°27' E 001°03'0 0.0
2019-May-13 05:59N 49°27' E 001°03'0 0.0
2019-May-13 05:30N 49°27' E 001°03'0 0.0
2019-May-13 04:58N 49°27' E 001°03'0 0.0
2019-May-13 04:28N 49°27' E 001°03'0 0.0
2019-May-13 03:58N 49°27' E 001°03'0 0.0
2019-May-13 03:28N 49°27' E 001°03'0 0.0
2019-May-13 02:58N 49°27' E 001°03'0 0.0
2019-May-13 02:22N 49°27' E 001°03'0 0.0
2019-May-13 01:58N 49°27' E 001°03'0 0.0
2019-May-13 01:25N 49°27' E 001°03'0 0.0
2019-May-13 00:58N 49°27' E 001°03'0 0.0
2019-May-13 00:28N 49°27' E 001°03'0 0.0
2019-May-12 23:58N 49°27' E 001°03'0 0.0
2019-May-12 23:25N 49°27' E 001°03'0 0.0
2019-May-12 22:58N 49°27' E 001°03'0 0.0
2019-May-12 22:28N 49°27' E 001°03'0 0.0
2019-May-12 21:58N 49°27' E 001°03'0 0.0
2019-May-12 21:10N 49°27' E 001°03'0 0.0
2019-May-12 20:58N 49°27' E 001°03'0 0.0
2019-May-12 20:25N 49°27' E 001°03'0 0.0
2019-May-12 19:58N 49°27' E 001°03'0 0.0
2019-May-12 19:25N 49°27' E 001°03'0 0.0
2019-May-12 18:58N 49°27' E 001°03'0 0.0
2019-May-12 18:04N 49°27' E 001°03'0 0.0
2019-May-12 17:58N 49°27' E 001°03'0 0.0
2019-May-12 17:22N 49°27' E 001°03'0 0.0
2019-May-12 16:58N 49°27' E 001°03'0 0.0
2019-May-12 16:25N 49°27' E 001°03'0 0.0
2019-May-12 15:49N 49°27' E 001°03'0 0.0
2019-May-12 15:28N 49°27' E 001°03'0 0.0
2019-May-12 14:55N 49°27' E 001°03'0 0.0
2019-May-12 14:19N 49°27' E 001°03'0 0.0
2019-May-12 13:58N 49°27' E 001°03'0 0.0
2019-May-12 13:28N 49°27' E 001°03'0 0.0
2019-May-12 12:51N 49°27' E 001°03'0 0.0
2019-May-12 12:30N 49°27' E 001°03'0 0.0
2019-May-12 12:00N 49°27' E 001°03'0 0.0
2019-May-12 11:29N 49°27' E 001°03'0 0.0
2019-May-12 10:56N 49°27' E 001°03'0 0.0
2019-May-12 10:26N 49°27' E 001°03'0 0.0
2019-May-12 09:59N 49°27' E 001°03'0 0.0
2019-May-12 09:29N 49°27' E 001°03'0 0.0
2019-May-12 09:00N 49°27' E 001°03'0 0.0
2019-May-12 08:29N 49°27' E 001°03'0 0.0
2019-May-12 07:56N 49°27' E 001°03'0 0.0
2019-May-12 07:29N 49°27' E 001°03'0 0.0
2019-May-12 06:58N 49°27' E 001°03'0 0.0
2019-May-12 06:28N 49°27' E 001°03'0 0.0
2019-May-12 05:46N 49°27' E 001°03'0 0.0
2019-May-12 05:28N 49°27' E 001°03'0 0.2
2019-May-12 05:00N 49°26' E 001°03'1 2.4
2019-May-12 04:30N 49°26' E 001°02'4 7.7
2019-May-12 04:00N 49°22' E 000°60'3 6.5
2019-May-12 03:30N 49°23' E 000°55'612.6
2019-May-12 03:00N 49°29' E 000°55'5 9.4
2019-May-12 02:30N 49°25' E 000°52'3 5.9
2019-May-12 02:00N 49°27' E 000°49'510.6
2019-May-12 01:30N 49°31' E 000°45'4 9.0
2019-May-12 01:00N 49°28' E 000°40'5 9.5
2019-May-12 00:30N 49°28' E 000°33'5 9.6
2019-May-12 00:00N 49°27' E 000°25'713.8
2019-May-11 23:30N 49°26' E 000°15'713.3
2019-May-11 23:00N 49°26' E 000°05'611.6
2019-May-11 22:30N 49°29' W 000°03'612.1
2019-May-11 22:00N 49°30' W 000°12'714.1
2019-May-11 21:30N 49°33' W 000°22'714.0
2019-May-11 21:00N 49°36' W 000°32'713.7
2019-May-11 20:31N 49°39' W 000°42'1413.3
2019-May-11 19:25N 49°44' W 001°03'511.5
2019-May-11 19:01N 49°45' W 001°10'612.2
2019-May-11 18:30N 49°46' W 001°19'612.2
2019-May-11 18:00N 49°45' W 001°29'612.8
2019-May-11 17:31N 49°42' W 001°37'3 6.0
2019-May-11 16:59N 49°39' W 001°37'0 0.0
2019-May-11 16:28N 49°39' W 001°37'0 0.0
2019-May-11 15:58N 49°39' W 001°37'0 0.0
2019-May-11 15:28N 49°39' W 001°37'0 0.0
2019-May-11 14:58N 49°39' W 001°37'0 0.0
2019-May-11 14:28N 49°39' W 001°37'0 0.0
2019-May-11 13:58N 49°39' W 001°37'0 0.0
2019-May-11 13:28N 49°39' W 001°37'0 0.0
2019-May-11 12:59N 49°39' W 001°37'0 0.0
2019-May-11 12:27N 49°39' W 001°37'0 0.0
2019-May-11 12:00N 49°39' W 001°37'0 0.0
2019-May-11 11:30N 49°39' W 001°37'0 0.0
2019-May-11 11:00N 49°39' W 001°37'0 0.0
2019-May-11 10:30N 49°39' W 001°37'0 0.0
2019-May-11 09:59N 49°39' W 001°37'0 0.0
2019-May-11 09:30N 49°39' W 001°37'0 0.0
2019-May-11 09:00N 49°39' W 001°37'0 0.0
2019-May-11 08:30N 49°39' W 001°37'0 0.0
2019-May-11 08:00N 49°39' W 001°37'0 0.0
2019-May-11 07:25N 49°39' W 001°37'0 0.0
2019-May-11 06:53N 49°39' W 001°37'0 0.0
2019-May-11 06:30N 49°39' W 001°37'0 0.0
2019-May-11 06:00N 49°39' W 001°37'1 1.8
2019-May-11 05:30N 49°40' W 001°37'510.5
2019-May-11 05:01N 49°44' W 001°42'611.3
2019-May-11 04:30N 49°46' W 001°50'611.7
2019-May-11 04:01N 49°48' W 001°59'611.8
2019-May-11 03:29N 49°50' W 002°08'612.0
2019-May-11 02:57N 49°52' W 002°17'612.1
2019-May-11 02:28N 49°53' W 002°26'713.8
2019-May-11 01:58N 49°51' W 002°36'614.0
2019-May-11 01:31N 49°49' W 002°46'713.9
2019-May-11 00:58N 49°45' W 002°56'714.3
2019-May-11 00:30N 49°40' W 003°02'  
Track history (hours):
 
Tides and Currents Weather Stations Pressure Air Temp Water Temp Dewpoint Dewpoint Depression Visibility Wind Speed Wind Dir Waves Ship Positions

Seabourn Quest

Last reported at 2019-May-20 08:56 UTC. Time now 2019-May-20 16:34 UTC.
Position N 51°43' W 005°17'.

Length 198 m; draft 6.8 m.

Type: Ship. MMSI: 311038900.

Date/timePositionNaut miles runAvg speedWind from/ knotsBaromVisibWave heightAir tempDewpointWater temp
2019-May-20 08:56N 51°43' W 005°17'0 0.2
2019-May-20 08:28N 51°43' W 005°17'0 0.2
2019-May-20 07:58N 51°43' W 005°17'0 0.2
2019-May-20 07:25N 51°43' W 005°17'0 0.0
2019-May-20 06:55N 51°43' W 005°17'0 0.1
2019-May-20 06:26N 51°43' W 005°17'0 0.6
2019-May-20 05:50N 51°43' W 005°16'3 8.1
2019-May-20 05:30N 51°40' W 005°15'611.3
2019-May-20 05:00N 51°35' W 005°15'510.2
2019-May-20 04:30N 51°30' W 005°16'511.0
2019-May-20 04:00N 51°24' W 005°16'5 9.5
2019-May-20 03:30N 51°20' W 005°14'610.4
2019-May-20 02:58N 51°21' W 005°05'611.4
2019-May-20 02:28N 51°23' W 004°56'4 9.0
2019-May-20 02:00N 51°24' W 004°50'5 9.3
2019-May-20 01:29N 51°24' W 004°42'54 9.7
2019-May-19 19:56N 51°21' W 003°16'5 9.9
2019-May-19 19:26N 51°22' W 003°08'716.7
2019-May-19 19:00N 51°27' W 002°59'815.6
2019-May-19 18:31N 51°30' W 002°48'3 5.7
2019-May-19 18:00N 51°30' W 002°44'0 0.7
2019-May-19 17:30N 51°30' W 002°43'0 0.1
2019-May-19 16:58N 51°30' W 002°43'0 0.0
2019-May-19 16:28N 51°30' W 002°43'0 0.0
2019-May-19 15:58N 51°30' W 002°43'0 0.0
2019-May-19 15:28N 51°30' W 002°43'0 0.0
2019-May-19 14:58N 51°30' W 002°43'0 0.0
2019-May-19 14:30N 51°30' W 002°43'0 0.0
2019-May-19 13:54N 51°30' W 002°43'0 0.0
2019-May-19 13:29N 51°30' W 002°43'0 0.0
2019-May-19 13:00N 51°30' W 002°43'0 0.0
2019-May-19 12:30N 51°30' W 002°43'0 0.0
2019-May-19 12:00N 51°30' W 002°43'0 0.0
2019-May-19 11:29N 51°30' W 002°43'0 0.0
2019-May-19 10:58N 51°30' W 002°43'0 0.0
2019-May-19 10:28N 51°30' W 002°43'0 0.0
2019-May-19 10:00N 51°30' W 002°43'0 0.0
2019-May-19 09:29N 51°30' W 002°43'0 0.0
2019-May-19 08:59N 51°30' W 002°43'0 0.0
2019-May-19 08:29N 51°30' W 002°43'0 0.0
2019-May-19 07:59N 51°30' W 002°43'0 0.0
2019-May-19 07:29N 51°30' W 002°43'0 0.0
2019-May-19 07:00N 51°30' W 002°43'0 0.7
2019-May-19 06:30N 51°30' W 002°43'0 0.5
2019-May-19 06:01N 51°30' W 002°44'1 3.0
2019-May-19 05:30N 51°30' W 002°46'815.5
2019-May-19 05:00N 51°27' W 002°58'1115.1
2019-May-19 04:15N 51°21' W 003°14'312.0
2019-May-19 04:01N 51°21' W 003°18'4912.8
2019-May-19 00:12N 51°07' W 004°33'413.5
2019-May-18 23:53N 51°05' W 004°38'513.4
2019-May-18 23:30N 51°02' W 004°44'713.6
2019-May-18 23:01N 50°57' W 004°53'713.4
2019-May-18 22:30N 50°53' W 005°01'713.4
2019-May-18 22:00N 50°48' W 005°08'713.3
2019-May-18 21:30N 50°43' W 005°16'612.8
2019-May-18 21:00N 50°39' W 005°23'510.4
2019-May-18 20:30N 50°35' W 005°29'5 9.9
2019-May-18 20:00N 50°32' W 005°34'510.1
2019-May-18 19:30N 50°28' W 005°40'1410.5
2019-May-18 18:13N 50°17' W 005°53'411.4
2019-May-18 17:50N 50°13' W 005°53'66 9.3
2019-May-18 10:46N 49°55' W 004°14'813.3
2019-May-18 10:08N 49°56' W 004°01'213.2
2019-May-18 10:00N 49°56' W 003°59'713.1
2019-May-18 09:30N 49°57' W 003°49'612.7
2019-May-18 09:00N 49°58' W 003°39'612.2
2019-May-18 08:30N 49°58' W 003°29'611.7
2019-May-18 08:00N 49°59' W 003°20'611.2
2019-May-18 07:30N 49°60' W 003°12'510.8
2019-May-18 07:00N 50°00' W 003°03'510.5
2019-May-18 06:30N 50°01' W 002°55'510.3
2019-May-18 06:00N 50°02' W 002°48'4270.1
2019-May-18 06:00N 50°00' W 002°42'4 7.8 360 / 101005.2 2.2 11.4 13.7
2019-May-18 05:30N 50°04' W 002°40'510.7
2019-May-18 05:00N 50°05' W 002°32'611.3
2019-May-18 04:30N 50°06' W 002°23'612.1
2019-May-18 04:00N 50°08' W 002°14'2113.9
2019-May-18 02:30N 50°14' W 001°43'4015.4
2019-May-17 23:54N 50°24' W 000°42'6311.5
2019-May-17 18:26N 50°45' E 000°51'613.1
2019-May-17 18:00N 50°49' E 000°59'714.0
2019-May-17 17:30N 50°53' E 001°07'714.4
2019-May-17 17:00N 50°58' E 001°15'9 0.7
2019-May-17 04:31N 51°07' E 001°20'0 2.6
2019-May-17 04:30N 51°07' E 001°20'3 6.2
2019-May-17 04:01N 51°08' E 001°24'510.2
2019-May-17 03:31N 51°08' E 001°32'5 9.5
2019-May-17 03:01N 51°10' E 001°39'4 8.5
2019-May-17 02:31N 51°13' E 001°44'5 9.5
2019-May-17 02:00N 51°18' E 001°47'5 9.9
2019-May-17 01:30N 51°22' E 001°51'5 9.6
2019-May-17 01:01N 51°26' E 001°54'5 9.4
2019-May-17 00:31N 51°30' E 001°59'5 9.1
2019-May-17 00:01N 51°33' E 002°04'5 9.5
2019-May-16 23:30N 51°37' E 002°09'5 9.4
2019-May-16 23:00N 51°40' E 002°14'5 8.1
2019-May-16 22:27N 51°43' E 002°19'9 9.1
2019-May-16 21:26N 51°49' E 002°31'611.9
2019-May-16 20:56N 51°46' E 002°39'510.2
2019-May-16 20:27N 51°41' E 002°41'7 9.2
2019-May-16 19:39N 51°34' E 002°43'1 9.4
2019-May-16 19:30N 51°32' E 002°43'4 9.0
2019-May-16 19:01N 51°28' E 002°42'5 9.5
2019-May-16 18:30N 51°23' E 002°43'5 9.6
2019-May-16 18:00N 51°22' E 002°51'714.5
2019-May-16 17:30N 51°24' E 003°02'711.6
2019-May-16 16:53N 51°20' E 003°12'0 0.0
2019-May-16 06:36N 51°20' E 003°12'0 0.0
2019-May-16 06:21N 51°20' E 003°12'0 0.0
2019-May-16 05:57N 51°20' E 003°12'0 0.0
2019-May-16 05:30N 51°20' E 003°12'0 0.0
2019-May-16 04:51N 51°20' E 003°12'0 0.0
2019-May-16 04:30N 51°20' E 003°12'1 1.9
2019-May-16 04:00N 51°21' E 003°12'3 6.7
2019-May-16 03:30N 51°25' E 003°13'5 9.8
2019-May-16 03:00N 51°25' E 003°21'5 9.9
2019-May-16 02:30N 51°25' E 003°29'4 8.0
2019-May-16 02:00N 51°26' E 003°35'5 9.5
2019-May-16 01:30N 51°25' E 003°42'511.0
2019-May-16 01:00N 51°21' E 003°49'510.5
2019-May-16 00:30N 51°23' E 003°56'4 8.4
2019-May-16 00:00N 51°26' E 004°01'4 8.6
2019-May-15 23:30N 51°22' E 004°05'5 9.1
2019-May-15 23:00N 51°24' E 004°12'4 8.6
2019-May-15 22:30N 51°20' E 004°16'3 6.7
2019-May-15 22:00N 51°17' E 004°19'3 5.4
2019-May-15 21:30N 51°15' E 004°20'3 5.3
2019-May-15 21:00N 51°14' E 004°24'0 0.5
2019-May-15 20:26N 51°13' E 004°24'0 0.0
2019-May-15 19:56N 51°13' E 004°24'0 0.0
2019-May-15 19:29N 51°13' E 004°24'0 0.0
2019-May-15 18:55N 51°13' E 004°24'0 0.0
2019-May-15 18:30N 51°13' E 004°24'0 0.0
2019-May-15 17:49N 51°13' E 004°24'0 0.0
2019-May-15 17:25N 51°13' E 004°24'0 0.0
2019-May-15 16:55N 51°13' E 004°24'0 0.0
2019-May-15 16:28N 51°13' E 004°24'0 0.0
2019-May-15 15:58N 51°13' E 004°24'0 0.0
2019-May-15 15:30N 51°13' E 004°24'0 0.0
2019-May-15 15:00N 51°13' E 004°24'0 0.0
2019-May-15 14:30N 51°13' E 004°24'0 0.0
2019-May-15 13:56N 51°13' E 004°24'0 0.0
2019-May-15 13:29N 51°13' E 004°24'0 0.0
2019-May-15 12:59N 51°13' E 004°24'0 0.0
2019-May-15 12:26N 51°13' E 004°24'0 0.2
2019-May-15 12:02N 51°13' E 004°24'781616.2
2019-May-15 11:59N 51°03' E 002°21'789019.3
2019-May-15 11:58N 51°13' E 004°24'0 0.0
2019-May-15 11:53N 51°13' E 004°24'0 0.1
2019-May-15 11:47N 51°13' E 004°24'0 0.1
2019-May-15 11:44N 51°13' E 004°24'0 0.0
2019-May-15 11:29N 51°13' E 004°24'026.8
2019-May-15 11:29N 51°13' E 004°24'0 0.0
2019-May-15 10:57N 51°13' E 004°24'0 0.0
2019-May-15 10:30N 51°13' E 004°24'0 0.0
2019-May-15 09:57N 51°13' E 004°24'0 0.0
2019-May-15 09:30N 51°13' E 004°24'0 0.0
2019-May-15 08:57N 51°13' E 004°24'0 0.0
2019-May-15 08:30N 51°13' E 004°24'0 0.0
2019-May-15 07:57N 51°13' E 004°24'0 0.0
2019-May-15 07:30N 51°13' E 004°24'0 0.0
2019-May-15 07:00N 51°13' E 004°24'0 0.0
2019-May-15 06:28N 51°13' E 004°24'0 0.0
2019-May-15 06:00N 51°13' E 004°24'0 0.8
2019-May-15 05:30N 51°14' E 004°24'4 8.2
2019-May-15 05:00N 51°16' E 004°18'4 8.9
2019-May-15 04:30N 51°20' E 004°16'510.4
2019-May-15 04:01N 51°24' E 004°11'510.8
2019-May-15 03:30N 51°24' E 004°02'5 9.2
2019-May-15 03:00N 51°22' E 003°56'612.4
2019-May-15 02:30N 51°22' E 003°46'612.6
2019-May-15 02:00N 51°26' E 003°39'510.6
2019-May-15 01:30N 51°25' E 003°31'713.0
2019-May-15 01:00N 51°24' E 003°20'713.3
2019-May-15 00:29N 51°24' E 003°09'611.7
2019-May-14 23:59N 51°23' E 003°00'713.7
2019-May-14 23:30N 51°22' E 002°50'610.7
2019-May-14 22:58N 51°22' E 002°41'612.7
2019-May-14 22:30N 51°22' E 002°31'5 9.1
2019-May-14 21:57N 51°20' E 002°24'510.1
2019-May-14 21:29N 51°18' E 002°17'612.8
2019-May-14 21:00N 51°15' E 002°09'611.7
2019-May-14 20:30N 51°12' E 002°01'611.1
2019-May-14 20:00N 51°09' E 001°54'511.0
2019-May-14 19:30N 51°05' E 001°46'4 7.8
2019-May-14 19:00N 51°02' E 001°47'713.6
2019-May-14 18:30N 51°03' E 001°58'916.5
2019-May-14 17:58N 51°03' E 002°12'611.9
2019-May-14 17:29N 51°03' E 002°21'0 0.6
2019-May-14 16:40N 51°03' E 002°20'1 2.8
2019-May-14 16:26N 51°03' E 002°21'0 0.7
2019-May-14 15:52N 51°03' E 002°21'0 0.0
2019-May-14 14:56N 51°03' E 002°21'0 0.0
2019-May-14 14:31N 51°03' E 002°21'0 0.0
2019-May-14 13:37N 51°03' E 002°21'0 0.0
2019-May-14 13:21N 51°03' E 002°21'0 0.0
2019-May-14 12:44N 51°03' E 002°21'0 0.0
2019-May-14 12:17N 51°03' E 002°21'0 0.0
2019-May-14 11:50N 51°03' E 002°21'0 0.0
2019-May-14 11:15N 51°03' E 002°21'0 0.0
2019-May-14 10:47N 51°03' E 002°21'0 0.0
2019-May-14 10:27N 51°03' E 002°21'0 0.0
2019-May-14 09:33N 51°03' E 002°21'0 0.0
2019-May-14 09:22N 51°03' E 002°21'0 0.0
2019-May-14 08:58N 51°03' E 002°21'0 0.0
2019-May-14 08:21N 51°03' E 002°21'0 0.0
2019-May-14 07:26N 51°03' E 002°21'0 0.0
2019-May-14 06:34N 51°03' E 002°21'0 0.0
2019-May-14 06:22N 51°03' E 002°21'0 0.0
2019-May-14 05:51N 51°03' E 002°21'0 1.1
2019-May-14 05:30N 51°03' E 002°21'1 1.3
2019-May-14 05:00N 51°03' E 002°20'0 0.6
2019-May-14 04:28N 51°03' E 002°21'4 7.8
2019-May-14 03:54N 51°04' E 002°14'512.6
2019-May-14 03:31N 51°03' E 002°06'612.0
2019-May-14 03:00N 51°02' E 001°57'510.2
2019-May-14 02:30N 51°02' E 001°49'612.5
2019-May-14 02:00N 51°00' E 001°39'815.6
2019-May-14 01:30N 50°55' E 001°30'1515.5
2019-May-14 00:31N 50°40' E 001°22'016.5
2019-May-14 00:31N 50°40' E 001°22'815.7
2019-May-14 00:00N 50°35' E 001°12'1015.8
2019-May-13 23:24N 50°29' E 001°01'916.0
2019-May-13 22:51N 50°24' E 000°50'2916.0
2019-May-13 21:03N 50°02' E 000°21'315.9
2019-May-13 20:52N 49°59' E 000°19'615.7
2019-May-13 20:28N 49°55' E 000°11'715.7
2019-May-13 20:00N 49°49' E 000°04'815.6
2019-May-13 19:30N 49°43' W 000°03'815.5
2019-May-13 19:00N 49°36' W 000°07'714.0
2019-May-13 18:30N 49°29' W 000°04'714.2
2019-May-13 18:00N 49°26' E 000°06'715.0
2019-May-13 17:31N 49°26' E 000°17'714.7
2019-May-13 17:01N 49°28' E 000°28'4 8.0
2019-May-13 16:31N 49°27' E 000°34'4 8.4
2019-May-13 16:00N 49°28' E 000°40'4 8.6
2019-May-13 15:30N 49°31' E 000°44'4 7.7
2019-May-13 15:00N 49°29' E 000°48'5 9.6
2019-May-13 14:30N 49°24' E 000°49'4 7.9
2019-May-13 14:00N 49°27' E 000°51'3 6.6
2019-May-13 13:30N 49°26' E 000°56'510.8
2019-May-13 13:00N 49°21' E 000°57'4 8.0
2019-May-13 12:30N 49°24' E 001°01'3 5.5
2019-May-13 11:58N 49°27' E 001°03'0 0.0
2019-May-13 11:28N 49°27' E 001°03'0 0.0
2019-May-13 10:55N 49°27' E 001°03'0 0.0
2019-May-13 10:25N 49°27' E 001°03'0 0.0
2019-May-13 09:54N 49°27' E 001°03'0 0.0
2019-May-13 09:30N 49°27' E 001°03'0 0.0
2019-May-13 09:00N 49°27' E 001°03'0 0.0
2019-May-13 08:30N 49°27' E 001°03'0 0.0
2019-May-13 07:59N 49°27' E 001°03'0 0.0
2019-May-13 07:31N 49°27' E 001°03'0 0.0
2019-May-13 06:59N 49°27' E 001°03'0 0.0
2019-May-13 06:29N 49°27' E 001°03'0 0.0
2019-May-13 05:59N 49°27' E 001°03'0 0.0
2019-May-13 05:30N 49°27' E 001°03'0 0.0
2019-May-13 04:58N 49°27' E 001°03'0 0.0
2019-May-13 04:28N 49°27' E 001°03'0 0.0
2019-May-13 03:58N 49°27' E 001°03'0 0.0
2019-May-13 03:28N 49°27' E 001°03'0 0.0
2019-May-13 02:58N 49°27' E 001°03'0 0.0
2019-May-13 02:22N 49°27' E 001°03'0 0.0
2019-May-13 01:58N 49°27' E 001°03'0 0.0
2019-May-13 01:25N 49°27' E 001°03'0 0.0
2019-May-13 00:58N 49°27' E 001°03'0 0.0
2019-May-13 00:28N 49°27' E 001°03'0 0.0
2019-May-12 23:58N 49°27' E 001°03'0 0.0
2019-May-12 23:25N 49°27' E 001°03'0 0.0
2019-May-12 22:58N 49°27' E 001°03'0 0.0
2019-May-12 22:28N 49°27' E 001°03'0 0.0
2019-May-12 21:58N 49°27' E 001°03'0 0.0
2019-May-12 21:10N 49°27' E 001°03'0 0.0
2019-May-12 20:58N 49°27' E 001°03'0 0.0
2019-May-12 20:25N 49°27' E 001°03'0 0.0
2019-May-12 19:58N 49°27' E 001°03'0 0.0
2019-May-12 19:25N 49°27' E 001°03'0 0.0
2019-May-12 18:58N 49°27' E 001°03'0 0.0
2019-May-12 18:04N 49°27' E 001°03'0 0.0
2019-May-12 17:58N 49°27' E 001°03'0 0.0
2019-May-12 17:22N 49°27' E 001°03'0 0.0
2019-May-12 16:58N 49°27' E 001°03'0 0.0
2019-May-12 16:25N 49°27' E 001°03'0 0.0
2019-May-12 15:49N 49°27' E 001°03'0 0.0
2019-May-12 15:28N 49°27' E 001°03'0 0.0
2019-May-12 14:55N 49°27' E 001°03'0 0.0
2019-May-12 14:19N 49°27' E 001°03'0 0.0
2019-May-12 13:58N 49°27' E 001°03'0 0.0
2019-May-12 13:28N 49°27' E 001°03'0 0.0
2019-May-12 12:51N 49°27' E 001°03'0 0.0
2019-May-12 12:30N 49°27' E 001°03'0 0.0
2019-May-12 12:00N 49°27' E 001°03'0 0.0
2019-May-12 11:29N 49°27' E 001°03'0 0.0
2019-May-12 10:56N 49°27' E 001°03'0 0.0
2019-May-12 10:26N 49°27' E 001°03'0 0.0
2019-May-12 09:59N 49°27' E 001°03'0 0.0
2019-May-12 09:29N 49°27' E 001°03'0 0.0
2019-May-12 09:00N 49°27' E 001°03'0 0.0
2019-May-12 08:29N 49°27' E 001°03'0 0.0
2019-May-12 07:56N 49°27' E 001°03'0 0.0
2019-May-12 07:29N 49°27' E 001°03'0 0.0
2019-May-12 06:58N 49°27' E 001°03'0 0.0
2019-May-12 06:28N 49°27' E 001°03'0 0.0
2019-May-12 05:46N 49°27' E 001°03'0 0.0
2019-May-12 05:28N 49°27' E 001°03'0 0.2
2019-May-12 05:00N 49°26' E 001°03'1 2.4
2019-May-12 04:30N 49°26' E 001°02'4 7.7
2019-May-12 04:00N 49°22' E 000°60'3 6.5
2019-May-12 03:30N 49°23' E 000°55'612.6
2019-May-12 03:00N 49°29' E 000°55'5 9.4
2019-May-12 02:30N 49°25' E 000°52'3 5.9
2019-May-12 02:00N 49°27' E 000°49'510.6
2019-May-12 01:30N 49°31' E 000°45'4 9.0
2019-May-12 01:00N 49°28' E 000°40'5 9.5
2019-May-12 00:30N 49°28' E 000°33'5 9.6
2019-May-12 00:00N 49°27' E 000°25'713.8
2019-May-11 23:30N 49°26' E 000°15'713.3
2019-May-11 23:00N 49°26' E 000°05'611.6
2019-May-11 22:30N 49°29' W 000°03'612.1
2019-May-11 22:00N 49°30' W 000°12'714.1
2019-May-11 21:30N 49°33' W 000°22'714.0
2019-May-11 21:00N 49°36' W 000°32'713.7
2019-May-11 20:31N 49°39' W 000°42'1413.3
2019-May-11 19:25N 49°44' W 001°03'511.5
2019-May-11 19:01N 49°45' W 001°10'612.2
2019-May-11 18:30N 49°46' W 001°19'612.2
2019-May-11 18:00N 49°45' W 001°29'612.8
2019-May-11 17:31N 49°42' W 001°37'3 6.0
2019-May-11 16:59N 49°39' W 001°37'0 0.0
2019-May-11 16:28N 49°39' W 001°37'0 0.0
2019-May-11 15:58N 49°39' W 001°37'0 0.0
2019-May-11 15:28N 49°39' W 001°37'0 0.0
2019-May-11 14:58N 49°39' W 001°37'0 0.0
2019-May-11 14:28N 49°39' W 001°37'0 0.0
2019-May-11 13:58N 49°39' W 001°37'0 0.0
2019-May-11 13:28N 49°39' W 001°37'0 0.0
2019-May-11 12:59N 49°39' W 001°37'0 0.0
2019-May-11 12:27N 49°39' W 001°37'0 0.0
2019-May-11 12:00N 49°39' W 001°37'0 0.0
2019-May-11 11:30N 49°39' W 001°37'0 0.0
2019-May-11 11:00N 49°39' W 001°37'0 0.0
2019-May-11 10:30N 49°39' W 001°37'0 0.0
2019-May-11 09:59N 49°39' W 001°37'0 0.0
2019-May-11 09:30N 49°39' W 001°37'0 0.0
2019-May-11 09:00N 49°39' W 001°37'0 0.0
2019-May-11 08:30N 49°39' W 001°37'0 0.0
2019-May-11 08:00N 49°39' W 001°37'0 0.0
2019-May-11 07:25N 49°39' W 001°37'0 0.0
2019-May-11 06:53N 49°39' W 001°37'0 0.0
2019-May-11 06:30N 49°39' W 001°37'0 0.0
2019-May-11 06:00N 49°39' W 001°37'1 1.8
2019-May-11 05:30N 49°40' W 001°37'510.5
2019-May-11 05:01N 49°44' W 001°42'611.3
2019-May-11 04:30N 49°46' W 001°50'611.7
2019-May-11 04:01N 49°48' W 001°59'611.8
2019-May-11 03:29N 49°50' W 002°08'612.0
2019-May-11 02:57N 49°52' W 002°17'612.1
2019-May-11 02:28N 49°53' W 002°26'713.8
2019-May-11 01:58N 49°51' W 002°36'614.0
2019-May-11 01:31N 49°49' W 002°46'713.9
2019-May-11 00:58N 49°45' W 002°56'714.3
2019-May-11 00:30N 49°40' W 003°02'  

Dump ship's entire track history